createdAt,value
2019-05-12T04:46:38.336Z,7.30
2019-05-12T04:49:08.744Z,7.40
2019-05-12T04:51:39.086Z,7.60
2019-05-12T04:54:09.409Z,7.80
2019-05-12T04:56:39.869Z,8.10
2019-05-12T04:59:10.175Z,8.20
2019-05-12T05:01:45.088Z,8.30
2019-05-12T05:04:15.490Z,8.30
2019-05-12T05:06:45.568Z,8.40
2019-05-12T05:09:15.888Z,8.40
2019-05-12T05:11:46.189Z,8.60
2019-05-12T05:14:16.505Z,8.70
2019-05-12T05:16:46.873Z,8.70
2019-05-12T05:19:18.149Z,8.70
2019-05-12T05:21:48.601Z,8.80
2019-05-12T05:24:19.096Z,8.90
2019-05-12T05:26:49.526Z,8.70
2019-05-12T05:29:19.887Z,8.70
2019-05-12T05:31:50.208Z,8.70
2019-05-12T05:34:20.549Z,8.70
2019-05-12T05:36:55.611Z,8.80
2019-05-12T05:39:24.352Z,8.80
2019-05-12T05:41:54.909Z,8.60
2019-05-12T05:44:29.072Z,8.90
2019-05-12T05:46:57.333Z,8.80
2019-05-12T05:49:27.671Z,9.00
2019-05-12T05:51:58.251Z,9.00
2019-05-12T05:54:31.225Z,9.10
2019-05-12T05:57:03.159Z,9.20
2019-05-12T05:59:36.815Z,9.30
2019-05-12T06:02:08.287Z,9.20
2019-05-12T06:04:45.555Z,9.30
2019-05-12T06:07:14.255Z,9.30
2019-05-12T06:09:44.180Z,9.40
2019-05-12T06:12:14.470Z,9.40
2019-05-12T06:14:48.815Z,9.40
2019-05-12T06:17:17.995Z,9.40
2019-05-12T06:19:49.068Z,9.50
2019-05-12T06:22:23.535Z,9.60
2019-05-12T06:24:58.651Z,9.70
2019-05-12T06:27:26.008Z,9.60
2019-05-12T06:30:00.946Z,9.50
2019-05-12T06:32:29.148Z,9.60
2019-05-12T06:35:03.863Z,9.80
2019-05-12T06:37:33.854Z,9.80
2019-05-12T06:40:04.701Z,9.80
2019-05-12T06:42:35.033Z,9.80
2019-05-12T06:45:28.398Z,9.90
2019-05-12T06:47:58.796Z,9.90
2019-05-12T06:50:36.450Z,9.90
2019-05-12T06:53:05.905Z,10.10
2019-05-12T06:55:39.354Z,10.20
2019-05-12T06:58:10.656Z,10.20
2019-05-12T07:01:10.110Z,10.10
2019-05-12T07:04:06.655Z,9.90
2019-05-12T07:06:36.870Z,9.90
2019-05-12T07:09:09.923Z,10.20
2019-05-12T07:11:45.768Z,10.30
2019-05-12T07:14:22.388Z,10.30
2019-05-12T07:16:55.286Z,10.40
2019-05-12T07:19:23.380Z,10.30
2019-05-12T07:21:58.242Z,10.30
2019-05-12T07:24:26.350Z,10.30
2019-05-12T07:27:04.109Z,10.40
2019-05-12T07:29:28.812Z,10.40
2019-05-12T07:31:59.158Z,10.60
2019-05-12T07:34:33.279Z,10.70
2019-05-12T07:37:04.408Z,10.70
2019-05-12T07:39:44.756Z,10.70
2019-05-12T07:42:09.354Z,10.60
2019-05-12T07:44:41.379Z,10.70
2019-05-12T07:47:13.752Z,10.80
2019-05-12T07:49:44.230Z,10.80
2019-05-12T07:52:15.476Z,11.00
2019-05-12T07:54:45.766Z,11.20
2019-05-12T07:57:17.589Z,11.20
2019-05-12T07:59:47.965Z,11.30
2019-05-12T08:02:23.172Z,11.20
2019-05-12T08:04:51.534Z,11.20
2019-05-12T08:07:28.258Z,11.10
2019-05-12T08:09:54.013Z,11.20
2019-05-12T08:12:24.357Z,11.40
2019-05-12T08:14:59.295Z,11.50
2019-05-12T08:17:28.458Z,11.40
2019-05-12T08:19:58.750Z,11.50
2019-05-12T08:22:29.571Z,11.60
2019-05-12T08:24:59.927Z,11.60
2019-05-12T08:27:30.247Z,11.50
2019-05-12T08:30:01.486Z,11.50
2019-05-12T08:32:34.090Z,11.50
2019-05-12T08:35:05.127Z,11.40
2019-05-12T08:40:34.135Z,11.60
2019-05-12T08:43:20.176Z,11.90
2019-05-12T08:45:50.471Z,12.00
2019-05-12T08:48:24.170Z,12.30
2019-05-12T08:50:54.783Z,12.50
2019-05-12T08:53:26.170Z,12.60
2019-05-12T08:55:57.643Z,12.60
2019-05-12T08:58:33.644Z,12.60
2019-05-12T09:00:59.893Z,12.30
2019-05-12T09:03:30.522Z,12.30
2019-05-12T09:06:01.116Z,12.20
2019-05-12T09:08:35.953Z,12.30
2019-05-12T09:11:04.195Z,12.20
2019-05-12T09:13:34.484Z,12.50
2019-05-12T09:16:04.884Z,12.60
2019-05-12T09:18:39.242Z,12.80
2019-05-12T09:21:07.068Z,12.70
2019-05-12T09:23:41.326Z,12.60
2019-05-12T09:26:13.483Z,12.40
2019-05-12T09:28:49.842Z,12.40
2019-05-12T09:31:19.327Z,12.50
2019-05-12T09:33:47.721Z,12.50
2019-05-12T09:36:20.096Z,12.40
2019-05-12T09:38:55.900Z,12.30
2019-05-12T09:41:23.911Z,12.60
2019-05-12T09:43:53.768Z,12.60
2019-05-12T09:46:28.253Z,12.70
2019-05-12T09:48:58.971Z,12.60
2019-05-12T09:51:32.906Z,12.50
2019-05-12T09:54:05.051Z,12.60
2019-05-12T09:56:34.429Z,12.70
2019-05-12T09:59:17.450Z,13.00
2019-05-12T10:01:39.487Z,13.10
2019-05-12T10:04:10.235Z,13.20
2019-05-12T10:06:44.294Z,13.10
2019-05-12T10:09:15.437Z,13.30
2019-05-12T10:11:45.724Z,13.10
2019-05-12T10:14:16.078Z,13.40
2019-05-12T10:16:49.760Z,13.70
2019-05-12T10:19:18.379Z,14.00
2019-05-12T10:21:49.130Z,14.10
2019-05-12T10:24:20.786Z,13.80
2019-05-12T10:26:51.110Z,13.70
2019-05-12T10:29:24.603Z,13.60
2019-05-12T10:31:56.707Z,14.00
2019-05-12T10:34:29.447Z,14.00
2019-05-12T10:36:59.070Z,14.00
2019-05-12T10:39:29.486Z,14.20
2019-05-12T10:41:59.780Z,14.60
2019-05-12T10:44:36.375Z,14.80
2019-05-12T10:47:04.428Z,15.00
2019-05-12T10:49:38.360Z,15.20
2019-05-12T10:52:08.685Z,15.60
2019-05-12T10:54:40.030Z,15.80
2019-05-12T10:57:14.128Z,16.20
2019-05-12T10:59:48.558Z,16.50
2019-05-12T11:02:26.620Z,16.50
2019-05-12T11:05:21.222Z,16.80
2019-05-12T11:08:00.296Z,16.80
2019-05-12T11:10:42.234Z,17.20
2019-05-12T11:13:26.587Z,17.40
2019-05-12T11:16:03.641Z,17.20
2019-05-12T11:18:40.415Z,16.90
2019-05-12T11:21:20.642Z,16.80
2019-05-12T11:24:06.794Z,16.60
2019-05-12T11:27:05.663Z,16.40
2019-05-12T11:29:46.208Z,17.00
2019-05-12T11:32:10.135Z,17.30
2019-05-12T11:34:40.490Z,18.10
2019-05-12T11:37:10.807Z,18.30
2019-05-12T11:39:45.282Z,18.40
2019-05-12T11:42:13.678Z,18.80
2019-05-12T11:44:44.263Z,18.80
2019-05-12T11:47:23.882Z,19.10
2019-05-12T11:49:47.544Z,19.20
2019-05-12T11:52:19.459Z,18.90
2019-05-12T11:54:53.619Z,18.40
2019-05-12T11:57:28.194Z,18.30
2019-05-12T12:00:01.809Z,17.60
2019-05-12T12:02:30.423Z,17.60
2019-05-12T12:04:59.366Z,18.20
2019-05-12T12:07:29.769Z,18.90
2019-05-12T12:10:00.106Z,19.50
2019-05-12T12:12:30.522Z,20.20
2019-05-12T12:15:00.891Z,20.50
2019-05-12T12:17:35.154Z,20.90
2019-05-12T12:20:06.017Z,21.50
2019-05-12T12:22:45.955Z,22.00
2019-05-12T12:25:23.331Z,22.50
2019-05-12T12:27:53.815Z,22.70
2019-05-12T12:30:24.332Z,22.20
2019-05-12T12:32:58.662Z,22.00
2019-05-12T12:35:26.618Z,22.30
2019-05-12T12:37:57.445Z,22.40
2019-05-12T12:40:28.897Z,21.90
2019-05-12T12:43:03.995Z,21.10
2019-05-12T12:46:02.288Z,21.80
2019-05-12T12:48:37.590Z,22.40
2019-05-12T12:51:14.499Z,23.50
2019-05-12T12:53:44.764Z,24.10
2019-05-12T12:56:37.951Z,25.40
2019-05-12T12:59:14.575Z,23.90
2019-05-12T13:01:45.452Z,22.70
2019-05-12T13:04:16.213Z,22.50
2019-05-12T13:06:48.685Z,22.00
2019-05-12T13:09:24.431Z,22.90
2019-05-12T13:11:53.669Z,24.10
2019-05-12T13:14:28.623Z,24.80
2019-05-12T13:16:57.429Z,26.10
2019-05-12T13:19:27.796Z,27.00
2019-05-12T13:21:59.763Z,27.50
2019-05-12T13:24:30.260Z,27.50
2019-05-12T13:27:04.239Z,27.80
2019-05-12T13:29:39.548Z,28.40
2019-05-12T13:32:06.723Z,28.20
2019-05-12T13:34:38.618Z,28.80
2019-05-12T13:37:14.304Z,28.50
2019-05-12T13:39:41.240Z,29.60
2019-05-12T13:42:13.325Z,29.30
2019-05-12T13:44:43.712Z,27.40
2019-05-12T13:47:14.172Z,25.90
2019-05-12T13:49:47.373Z,25.40
2019-05-12T13:52:20.141Z,26.20
2019-05-12T13:54:48.418Z,27.50
2019-05-12T13:57:18.724Z,28.60
2019-05-12T13:59:54.295Z,28.20
2019-05-12T14:02:23.449Z,26.60
2019-05-12T14:04:53.626Z,24.80
2019-05-12T14:07:24.022Z,24.10
2019-05-12T14:09:54.419Z,24.30
2019-05-12T14:12:24.689Z,23.60
2019-05-12T14:14:55.784Z,23.10
2019-05-12T14:17:26.141Z,22.60
2019-05-12T14:19:56.489Z,22.90
2019-05-12T14:22:26.773Z,22.70
2019-05-12T14:24:57.725Z,22.10
2019-05-12T14:27:28.783Z,22.00
2019-05-12T14:30:00.272Z,22.20
2019-05-12T14:32:33.597Z,21.90
2019-05-12T14:35:04.398Z,22.10
2019-05-12T14:37:34.720Z,23.40
2019-05-12T14:40:05.414Z,25.50
2019-05-12T14:42:39.815Z,26.50
2019-05-12T14:45:10.443Z,26.30
2019-05-12T14:47:43.434Z,25.30
2019-05-12T14:50:14.052Z,23.90
2019-05-12T14:52:44.534Z,23.20
2019-05-12T14:55:18.580Z,22.50
2019-05-12T14:57:48.938Z,21.50
2019-05-12T15:00:21.390Z,21.30
2019-05-12T15:02:54.004Z,20.80
2019-05-12T15:05:27.770Z,20.20
2019-05-12T15:08:00.342Z,20.10
2019-05-12T15:10:33.639Z,20.00
2019-05-12T15:13:03.586Z,21.00
2019-05-12T15:15:34.785Z,22.60
2019-05-12T15:18:09.960Z,22.70
2019-05-12T15:20:41.576Z,22.10
2019-05-12T15:23:14.124Z,21.60
2019-05-12T15:25:44.249Z,20.90
2019-05-12T15:28:18.598Z,20.20
2019-05-12T15:30:49.250Z,20.00
2019-05-12T15:33:20.698Z,20.00
2019-05-12T15:35:51.166Z,20.30
2019-05-12T15:38:23.778Z,21.10
2019-05-12T15:40:55.579Z,20.90
2019-05-12T15:43:26.492Z,20.30
2019-05-12T15:45:59.435Z,19.80
2019-05-12T15:48:28.929Z,19.50
2019-05-12T15:51:04.412Z,19.40
2019-05-12T15:53:33.445Z,19.20
2019-05-12T15:56:05.583Z,18.90
2019-05-12T15:58:36.360Z,18.90
2019-05-12T16:01:06.888Z,18.80
2019-05-12T16:03:43.391Z,18.40
2019-05-12T16:06:14.876Z,18.50
2019-05-12T16:08:45.690Z,18.30
2019-05-12T16:11:16.552Z,18.20
2019-05-12T16:13:54.735Z,18.30
2019-05-12T16:16:20.808Z,18.20
2019-05-12T16:18:51.085Z,18.00
2019-05-12T16:21:22.418Z,17.90
2019-05-12T16:23:53.490Z,18.00
2019-05-12T16:26:26.349Z,18.00
2019-05-12T16:29:05.295Z,18.10
2019-05-12T16:31:30.499Z,18.10
2019-05-12T16:34:05.729Z,17.90
2019-05-12T16:36:33.847Z,17.80
2019-05-12T16:39:08.038Z,17.70
2019-05-12T16:41:38.461Z,17.40
2019-05-12T16:44:17.409Z,17.40
2019-05-12T16:46:40.829Z,17.30
2019-05-12T16:49:11.127Z,17.30
2019-05-12T16:51:43.736Z,17.10
2019-05-12T16:54:14.180Z,17.10
2019-05-12T16:56:44.821Z,17.00
2019-05-12T16:59:20.209Z,16.90
2019-05-12T17:01:47.226Z,16.80
2019-05-12T17:04:17.930Z,16.80
2019-05-12T17:06:48.554Z,17.00
2019-05-12T17:09:19.218Z,17.00
2019-05-12T17:11:53.342Z,16.90
2019-05-12T17:14:24.584Z,16.90
2019-05-12T17:16:55.125Z,16.90
2019-05-12T17:19:25.816Z,16.90
2019-05-12T17:21:59.401Z,16.80
2019-05-12T17:24:28.358Z,16.80
2019-05-12T17:26:58.684Z,16.90
2019-05-12T17:29:33.368Z,16.90
2019-05-12T17:32:08.826Z,16.90
2019-05-12T17:34:40.415Z,16.80
2019-05-12T17:37:11.475Z,16.80
2019-05-12T17:39:43.852Z,16.90
2019-05-12T17:42:21.686Z,16.70
2019-05-12T17:44:49.028Z,16.60
2019-05-12T17:47:23.665Z,16.60
2019-05-12T17:49:53.923Z,16.50
2019-05-12T17:52:24.454Z,16.40
2019-05-12T17:54:57.874Z,16.30
2019-05-12T17:57:26.915Z,16.20
2019-05-12T17:59:59.852Z,16.10
2019-05-12T18:02:31.221Z,16.20
2019-05-12T18:05:10.151Z,16.00
2019-05-12T18:07:34.273Z,15.80
2019-05-12T18:10:05.674Z,15.90
2019-05-12T18:12:44.119Z,15.80
2019-05-12T18:15:08.252Z,15.80
2019-05-12T18:17:39.039Z,15.70
2019-05-12T18:20:10.860Z,15.60
2019-05-12T18:22:45.001Z,15.60
2019-05-12T18:25:14.665Z,15.50
2019-05-12T18:27:50.595Z,15.50
2019-05-12T18:30:19.210Z,15.40
2019-05-12T18:32:54.986Z,15.30
2019-05-12T18:35:21.641Z,15.30
2019-05-12T18:37:54.019Z,15.30
2019-05-12T18:40:25.180Z,15.30
2019-05-12T18:42:55.797Z,15.20
2019-05-12T18:45:26.152Z,15.30
2019-05-12T18:47:56.481Z,15.30
2019-05-12T18:50:31.318Z,15.20
2019-05-12T18:52:59.971Z,15.20
2019-05-12T18:55:35.794Z,15.20
2019-05-12T18:58:04.457Z,15.20
2019-05-12T19:00:36.173Z,15.20
2019-05-12T19:03:09.970Z,15.10
2019-05-12T19:05:39.163Z,15.00
2019-05-12T19:08:13.836Z,14.90
2019-05-12T19:10:48.692Z,14.80
2019-05-12T19:13:16.590Z,14.90
2019-05-12T19:15:52.840Z,14.70
2019-05-12T19:18:24.356Z,14.70
2019-05-12T19:20:54.576Z,14.70
2019-05-12T19:23:34.727Z,14.60
2019-05-12T19:26:00.153Z,14.50
2019-05-12T19:28:30.883Z,14.30
2019-05-12T19:31:06.131Z,14.30
2019-05-12T19:33:35.325Z,14.30
2019-05-12T19:36:07.984Z,14.10
2019-05-12T19:38:37.910Z,14.10
2019-05-12T19:41:10.732Z,14.00
2019-05-12T19:43:47.704Z,13.90
2019-05-12T19:46:14.648Z,13.90
2019-05-12T19:48:49.888Z,13.90
2019-05-12T19:51:24.502Z,13.80
2019-05-12T19:53:50.655Z,13.80
2019-05-12T19:56:23.831Z,13.80
2019-05-12T19:59:01.443Z,13.80
2019-05-12T20:01:34.482Z,13.70
2019-05-12T20:04:05.081Z,13.70
2019-05-12T20:06:36.878Z,13.60
2019-05-12T20:09:10.825Z,13.60
2019-05-12T20:11:40.205Z,13.60
2019-05-12T20:14:24.083Z,13.60
2019-05-12T20:17:01.382Z,13.40
2019-05-12T20:19:36.255Z,13.50
2019-05-12T20:22:20.665Z,13.30
2019-05-12T20:24:53.807Z,13.40
2019-05-12T20:27:45.213Z,13.40
2019-05-12T20:30:20.984Z,13.40
2019-05-12T20:33:14.083Z,13.40
2019-05-12T20:35:49.100Z,13.40
2019-05-12T20:38:16.860Z,13.30
2019-05-12T20:40:47.180Z,13.30
2019-05-12T20:43:17.562Z,13.40
2019-05-12T20:45:58.329Z,13.30
2019-05-12T20:51:47.787Z,13.20
2019-05-12T20:54:18.244Z,13.20
2019-05-12T20:56:53.052Z,13.00
2019-05-12T20:59:23.807Z,13.00
2019-05-12T21:01:53.292Z,13.00
2019-05-12T21:04:31.984Z,12.90
2019-05-12T21:07:00.030Z,12.80
2019-05-12T21:09:30.389Z,12.80
2019-05-12T21:12:00.719Z,12.80
2019-05-12T21:14:33.410Z,12.70
2019-05-12T21:17:09.523Z,12.70
2019-05-12T21:19:38.652Z,12.60
2019-05-12T21:22:08.119Z,12.70
2019-05-12T21:24:40.924Z,12.70
2019-05-12T21:27:15.759Z,12.60
2019-05-12T21:29:43.714Z,12.70
2019-05-12T21:32:16.827Z,12.70
2019-05-12T21:34:46.051Z,12.70
2019-05-12T21:37:16.368Z,12.70
2019-05-12T21:39:50.852Z,12.70
2019-05-12T21:42:18.580Z,12.60
2019-05-12T21:44:49.010Z,12.60
2019-05-12T21:47:19.983Z,12.60
2019-05-12T21:49:55.064Z,12.50
2019-05-12T21:52:23.808Z,12.50
